ADDS METAR Data INFO
IDs: Format: Raw Decoded Include TAF

Data at: 0433 UTC 28 Jul 2017

KAFW 280353Z 16005KT 10SM BKN300 29/19 A2990 RMK AO2 SLP109 T02890194
KAFW 280253Z 18004KT 10SM BKN300 30/19 A2989 RMK AO2 SLP103 T03000194 53003
KAFW 280153Z 17006KT 10SM BKN300 32/19 A2988 RMK AO2 SLP100 T03170189
KAFW 280053Z 18006KT 10SM BKN300 34/19 A2987 RMK AO2 SLP098 T03390189
KAFW 272353Z 16007KT 10SM FEW075 BKN300 36/18 A2988 RMK AO2 SLP100 T03560183 10372 20339 56022
KAFW 272253Z 14006KT 10SM FEW075 BKN300 37/20 A2990 RMK AO2 SLP106 T03670200
KAFW 272153Z 24003KT 10SM FEW065 BKN300 37/20 A2992 RMK AO2 SLP112 TCU DSNT NW T03670200
KAFW 272053Z VRB06KT 10SM FEW065 FEW100 BKN300 36/21 A2994 RMK AO2 SLP121 MDT CU DSNT W-NW T03610206 57022
KAFW 271953Z 16005KT 10SM FEW065 FEW100 BKN300 36/21 A2997 RMK AO2 SLP128 MDT CU DSNT W T03610211
KAFW 271853Z VRB04KT 10SM SCT095 BKN300 35/21 A2999 RMK AO2 SLP136 T03500211
KAFW 271753Z 25006KT 10SM BKN300 34/21 A3001 RMK AO2 SLP143 T03390211 10339 20256 58007
KAFW 271653Z VRB05KT 10SM BKN300 33/21 A3002 RMK AO2 SLP148 T03280206
KAFW 271553Z 22009KT 10SM FEW095 BKN300 32/21 A3003 RMK AO2 SLP152 T03170206
KAFW 271453Z 23007KT 10SM FEW090 BKN300 30/21 A3003 RMK AO2 SLP152 T03000211 51008
KAFW 271353Z 23008KT 10SM FEW100 SCT300 29/22 A3003 RMK AO2 SLP152 T02890217
KAFW 271253Z 21004KT 10SM SCT300 27/22 A3001 RMK AO2 SLP146 T02670222
KAFW 271153Z 20004KT 10SM SCT300 26/22 A3001 RMK AO2 SLP144 T02560217 10300 20256 53008
KAFW 271053Z COR VRB05KT 10SM SCT300 26/21 A3000 RMK AO2 SLP141 T02610211
KAFW 270953Z 20007G15KT 10SM SCT300 27/21 A2998 RMK AO2 SLP135 T02720206
KAFW 270853Z 19011G17KT 10SM SCT300 28/21 A2998 RMK AO2 SLP133 T02780206 50002
KAFW 270753Z 19009KT 10SM BKN300 29/21 A2998 RMK AO2 SLP133 T02890206
KAFW 270653Z 19011G16KT 10SM BKN300 29/21 A2998 RMK AO2 SLP133 T02890211
KAFW 270553Z 18013G19KT 10SM BKN300 30/21 A2997 RMK AO2 SLP132 T03000211 10344 20300 403610250 50001
KAFW 270453Z 16011KT 10SM BKN300 30/22 A2997 RMK AO2 SLP132 T03000217
KAFW 270353Z 15009KT 10SM BKN300 31/21 A2998 RMK AO2 SLP133 T03110206
KAFW 270253Z 16006KT 10SM BKN300 31/19 A2997 RMK AO2 SLP132 T03060189 50008
KAFW 270153Z 16005KT 10SM BKN300 31/19 A2997 RMK AO2 SLP133 T03110189
KAFW 270053Z 16009KT 10SM BKN300 33/18 A2996 RMK AO2 SLP127 T03330183
KAFW 262353Z 16009KT 10SM FEW070 BKN300 34/20 A2995 RMK AO2 SLP124 T03390200 10361 20328 56017
KAFW 262253Z 18007KT 10SM FEW070 BKN300 34/20 A2996 RMK AO2 SLP129 T03440200
KAFW 262153Z 15006G15KT 10SM FEW065 BKN300 35/21 A2997 RMK AO2 SLP130 T03500211
KAFW 262053Z 18007KT 10SM SCT060 SCT300 36/22 A3000 RMK AO2 SLP139 T03610217 58019
KAFW 261953Z 19010G16KT 150V220 10SM FEW050 FEW250 35/23 A3002 RMK AO2 SLP147 T03500228
KAFW 261853Z 18011KT 10SM FEW040 FEW250 33/23 A3004 RMK AO2 SLP156 T03330233
KAFW 261753Z 20007KT 10SM FEW037 FEW250 33/24 A3006 RMK AO2 SLP160 T03330239 10333 20250 58006
KAFW 261653Z 20008KT 10SM FEW035 FEW250 33/24 A3007 RMK AO2 SLP164 T03280239